Wetterdaten: Woche 25.12.17 - 31.12.17 (KW52)
Datum Zeit Temp. A. Feuchte A. Luftdruck Regen Wind Richtung Taupunkt Windchill Windben
25.12.2017 00:00 6,8 C 70 % 1023,3 hPa 0,0 l/m 8,6 km/h N 1,8 C 5,1 C 22,5 km/h
25.12.2017 01:00 6,3 C 72 % 1023,3 hPa 0,0 l/m 3,3 km/h N 1,6 C 6,3 C 15,3 km/h
25.12.2017 02:00 5,2 C 74 % 1023,3 hPa 0,0 l/m 1,1 km/h N 1,0 C 5,2 C 13,7 km/h
25.12.2017 03:00 4,0 C 76 % 1023,4 hPa 0,0 l/m 0,0 km/h N 0,2 C 4,0 C 0,0 km/h
25.12.2017 04:00 3,1 C 80 % 1023,4 hPa 0,0 l/m 0,1 km/h N -0,0 C 3,1 C 3,2 km/h
25.12.2017 05:00 2,0 C 79 % 1023,6 hPa 0,0 l/m 0,0 km/h N -1,3 C 2,0 C 0,0 km/h
25.12.2017 06:00 0,4 C 81 % 1023,6 hPa 0,0 l/m 0,0 km/h N -2,5 C 0,4 C 0,4 km/h
25.12.2017 07:00 0,0 C 83 % 1023,8 hPa 0,0 l/m 0,0 km/h N -2,5 C 0,0 C 0,0 km/h
25.12.2017 08:00 -0,9 C 83 % 1023,8 hPa 0,0 l/m 0,0 km/h N -3,4 C -0,9 C 0,0 km/h
25.12.2017 09:00 0,1 C 84 % 1023,9 hPa 0,0 l/m 0,0 km/h N -2,3 C 0,1 C 0,0 km/h
25.12.2017 10:00 1,9 C 83 % 1023,7 hPa 0,0 l/m 0,0 km/h N -0,6 C 1,9 C 0,0 km/h
25.12.2017 11:00 3,8 C 83 % 1022,9 hPa 0,0 l/m 0,0 km/h N 1,2 C 3,8 C 0,4 km/h
25.12.2017 12:00 5,9 C 81 % 1021,7 hPa 0,0 l/m 0,0 km/h N 2,9 C 5,9 C 1,2 km/h
25.12.2017 13:00 7,4 C 74 % 1020,8 hPa 0,0 l/m 0,0 km/h N 3,1 C 7,4 C 1,6 km/h
25.12.2017 14:00 8,1 C 71 % 1020,2 hPa 0,0 l/m 0,0 km/h N 3,2 C 8,1 C 1,6 km/h
25.12.2017 15:00 8,0 C 71 % 1019,8 hPa 0,0 l/m 0,0 km/h N 3,1 C 8,0 C 0,0 km/h
25.12.2017 16:00 5,9 C 73 % 1019,6 hPa 0,0 l/m 0,0 km/h N 1,4 C 5,9 C 0,0 km/h
25.12.2017 17:00 2,8 C 76 % 1019,7 hPa 0,0 l/m 0,0 km/h N -1,0 C 2,8 C 0,0 km/h
25.12.2017 18:00 0,7 C 79 % 1019,5 hPa 0,0 l/m 0,0 km/h N -2,6 C 0,7 C 0,0 km/h
25.12.2017 19:00 -0,7 C 81 % 1019,1 hPa 0,0 l/m 0,0 km/h N -3,6 C -0,7 C 0,0 km/h
25.12.2017 20:00 -1,5 C 82 % 1018,7 hPa 0,0 l/m 0,0 km/h N -4,1 C -1,5 C 0,0 km/h
25.12.2017 21:00 -2,0 C 83 % 1018,2 hPa 0,0 l/m 0,0 km/h N -4,5 C -2,0 C 0,0 km/h
25.12.2017 22:00 -2,4 C 84 % 1017,6 hPa 0,0 l/m 0,0 km/h N -4,7 C -2,4 C 0,0 km/h
25.12.2017 23:00 -2,8 C 84 % 1017,0 hPa 0,0 l/m 0,0 km/h N -5,1 C -2,8 C 0,0 km/h
26.12.2017 00:00 -2,0 C 84 % 1016,2 hPa 0,0 l/m 0,0 km/h N -4,4 C -2,0 C 0,0 km/h
26.12.2017 01:00 -0,9 C 84 % 1015,5 hPa 0,0 l/m 0,0 km/h N -3,2 C -0,9 C 0,0 km/h
26.12.2017 02:00 0,0 C 84 % 1014,9 hPa 0,0 l/m 0,0 km/h N -2,4 C 0,0 C 0,0 km/h
26.12.2017 03:00 0,6 C 84 % 1014,3 hPa 0,0 l/m 0,0 km/h N -1,8 C 0,6 C 0,0 km/h
26.12.2017 04:00 0,7 C 84 % 1013,9 hPa 0,0 l/m 0,0 km/h N -1,7 C 0,7 C 0,0 km/h
26.12.2017 05:00 0,8 C 84 % 1013,6 hPa 0,0 l/m 0,0 km/h N -1,6 C 0,8 C 1,2 km/h
26.12.2017 06:00 0,9 C 84 % 1013,3 hPa 0,0 l/m 0,0 km/h N -1,5 C 0,9 C 0,0 km/h
26.12.2017 07:00 0,8 C 84 % 1012,9 hPa 0,0 l/m 0,0 km/h N -1,6 C 0,8 C 0,4 km/h
26.12.2017 08:00 0,7 C 84 % 1012,9 hPa 0,0 l/m 0,0 km/h N -1,7 C 0,7 C 2,0 km/h
26.12.2017 09:00 0,8 C 84 % 1012,9 hPa 0,0 l/m 0,0 km/h N -1,6 C 0,8 C 0,0 km/h
26.12.2017 10:00 0,9 C 84 % 1012,8 hPa 0,0 l/m 0,0 km/h N -1,5 C 0,9 C 0,8 km/h
26.12.2017 11:00 1,3 C 84 % 1012,2 hPa 0,0 l/m 0,0 km/h N -1,1 C 1,3 C 0,4 km/h
26.12.2017 12:00 1,3 C 84 % 1011,3 hPa 0,0 l/m 0,0 km/h N -1,1 C 1,3 C 0,4 km/h
26.12.2017 13:00 1,3 C 84 % 1010,9 hPa 0,0 l/m 0,0 km/h N -1,0 C 1,3 C 1,6 km/h
26.12.2017 14:00 1,6 C 84 % 1010,5 hPa 0,0 l/m 0,0 km/h N -0,8 C 1,6 C 0,8 km/h
26.12.2017 15:00 1,3 C 84 % 1010,3 hPa 0,0 l/m 0,1 km/h N -1,1 C 1,3 C 2,0 km/h
26.12.2017 16:00 1,3 C 84 % 1010,0 hPa 0,0 l/m 0,0 km/h N -1,1 C 1,3 C 0,8 km/h
26.12.2017 17:00 1,2 C 84 % 1009,6 hPa 0,0 l/m 0,1 km/h N -1,2 C 1,2 C 2,4 km/h
26.12.2017 18:00 0,9 C 84 % 1009,9 hPa 0,0 l/m 0,0 km/h N -1,5 C 0,9 C 0,8 km/h
26.12.2017 19:00 0,7 C 84 % 1009,9 hPa 0,0 l/m 0,0 km/h N -1,7 C 0,7 C 1,2 km/h
26.12.2017 20:00 0,5 C 84 % 1009,8 hPa 0,0 l/m 3,6 km/h N -1,9 C 0,5 C 10,0 km/h
26.12.2017 21:00 -0,1 C 84 % 1009,3 hPa 0,0 l/m 0,5 km/h N -2,4 C -0,1 C 3,6 km/h
26.12.2017 22:00 -0,3 C 84 % 1008,8 hPa 0,0 l/m 0,0 km/h N -2,6 C -0,3 C 0,8 km/h
26.12.2017 23:00 -0,1 C 84 % 1008,3 hPa 0,0 l/m 0,0 km/h N -2,5 C -0,1 C 0,0 km/h
27.12.2017 00:00 0,1 C 84 % 1007,1 hPa 0,0 l/m 0,1 km/h N -2,3 C 0,1 C 2,4 km/h
27.12.2017 01:00 -0,2 C 84 % 1006,3 hPa 0,0 l/m 0,2 km/h N -2,5 C -0,2 C 4,4 km/h
27.12.2017 02:00 -0,6 C 84 % 1005,7 hPa 0,0 l/m 0,1 km/h N -3,0 C -0,6 C 3,2 km/h
27.12.2017 03:00 -0,7 C 84 % 1004,2 hPa 0,0 l/m 0,0 km/h N -3,1 C -0,7 C 0,4 km/h
27.12.2017 04:00 -0,6 C 84 % 1002,8 hPa 0,0 l/m 0,3 km/h N -3,0 C -0,6 C 2,8 km/h
27.12.2017 05:00 -0,6 C 84 % 1001,6 hPa 0,0 l/m 0,1 km/h N -3,0 C -0,6 C 2,4 km/h
27.12.2017 06:00 -0,5 C 84 % 1000,4 hPa 0,0 l/m 0,0 km/h N -2,9 C -0,5 C 1,2 km/h
27.12.2017 07:00 -0,5 C 84 % 999,5 hPa 0,0 l/m 0,1 km/h N -2,9 C -0,5 C 2,0 km/h
27.12.2017 08:00 -0,5 C 84 % 998,4 hPa 0,0 l/m 0,0 km/h N -2,8 C -0,5 C 1,6 km/h
27.12.2017 09:00 -0,0 C 85 % 997,6 hPa 0,0 l/m 0,0 km/h N -2,3 C -0,0 C 0,8 km/h
27.12.2017 10:00 0,6 C 85 % 996,8 hPa 0,0 l/m 0,0 km/h N -1,6 C 0,6 C 0,8 km/h
27.12.2017 11:00 2,7 C 85 % 995,8 hPa 0,0 l/m 0,0 km/h N 0,4 C 2,7 C 1,6 km/h
27.12.2017 12:00 5,6 C 85 % 994,0 hPa 0,0 l/m 0,4 km/h N 3,3 C 5,6 C 6,4 km/h
27.12.2017 13:00 8,4 C 82 % 992,6 hPa 0,0 l/m 3,6 km/h N 5,5 C 8,4 C 16,5 km/h
27.12.2017 14:00 9,2 C 75 % 991,5 hPa 0,0 l/m 4,2 km/h N 4,9 C 9,2 C 16,9 km/h
27.12.2017 15:00 9,0 C 74 % 991,0 hPa 0,0 l/m 2,4 km/h N 4,6 C 9,0 C 13,3 km/h
27.12.2017 16:00 9,2 C 72 % 990,7 hPa 0,0 l/m 3,3 km/h N 4,4 C 9,2 C 13,3 km/h
27.12.2017 17:00 9,4 C 72 % 990,6 hPa 0,0 l/m 1,4 km/h N 4,5 C 9,4 C 10,5 km/h
27.12.2017 18:00 9,6 C 72 % 990,3 hPa 0,0 l/m 1,7 km/h N 4,8 C 9,6 C 14,1 km/h
27.12.2017 19:00 9,6 C 73 % 990,3 hPa 0,0 l/m 1,6 km/h N 5,0 C 9,6 C 8,8 km/h
27.12.2017 20:00 9,6 C 73 % 989,8 hPa 0,0 l/m 2,5 km/h N 5,1 C 9,6 C 13,7 km/h
27.12.2017 21:00 9,5 C 72 % 989,5 hPa 0,0 l/m 0,7 km/h N 4,7 C 9,5 C 4,8 km/h
27.12.2017 22:00 9,6 C 70 % 988,9 hPa 0,0 l/m 0,9 km/h N 4,4 C 9,6 C 6,8 km/h
27.12.2017 23:00 8,9 C 72 % 988,6 hPa 0,0 l/m 0,1 km/h N 4,2 C 8,9 C 3,2 km/h
28.12.2017 00:00 8,6 C 74 % 988,1 hPa 0,0 l/m 0,2 km/h N 4,2 C 8,6 C 3,6 km/h
28.12.2017 01:00 8,6 C 74 % 987,6 hPa 0,0 l/m 0,1 km/h N 4,1 C 8,6 C 2,4 km/h
28.12.2017 02:00 7,7 C 75 % 987,1 hPa 0,0 l/m 0,1 km/h N 3,6 C 7,7 C 2,4 km/h
28.12.2017 03:00 8,0 C 76 % 987,0 hPa 0,0 l/m 0,0 km/h N 4,0 C 8,0 C 2,8 km/h
28.12.2017 04:00 7,4 C 74 % 987,7 hPa 0,5 l/m 4,0 km/h N 3,0 C 7,2 C 13,3 km/h
28.12.2017 05:00 4,2 C 81 % 989,2 hPa 3,4 l/m 5,2 km/h N 1,1 C 4,2 C 19,3 km/h
28.12.2017 06:00 3,3 C 83 % 989,9 hPa 1,8 l/m 3,9 km/h N 0,7 C 3,3 C 14,5 km/h
28.12.2017 07:00 3,8 C 82 % 990,2 hPa 0,3 l/m 7,9 km/h N 1,1 C 2,5 C 26,2 km/h
28.12.2017 08:00 4,3 C 78 % 990,9 hPa 0,0 l/m 7,9 km/h N 0,9 C 3,0 C 31,0 km/h
28.12.2017 09:00 4,6 C 76 % 991,2 hPa 0,0 l/m 8,2 km/h N 0,7 C 3,1 C 26,1 km/h
28.12.2017 10:00 5,1 C 73 % 991,9 hPa 0,0 l/m 10,3 km/h N 0,6 C 2,0 C 29,4 km/h
28.12.2017 11:00 5,5 C 72 % 992,2 hPa 0,0 l/m 9,3 km/h N 0,8 C 3,2 C 34,6 km/h
28.12.2017 12:00 5,7 C 70 % 992,2 hPa 0,0 l/m 8,6 km/h N 0,8 C 3,8 C 32,6 km/h
28.12.2017 13:00 5,8 C 69 % 992,3 hPa 0,0 l/m 10,8 km/h N 0,7 C 2,5 C 31,0 km/h
28.12.2017 14:00 5,6 C 71 % 993,2 hPa 0,0 l/m 11,2 km/h N 0,7 C 2,0 C 31,0 km/h
28.12.2017 15:00 5,2 C 72 % 993,3 hPa 0,0 l/m 10,9 km/h N 0,6 C 1,7 C 29,8 km/h
28.12.2017 16:00 4,9 C 74 % 994,5 hPa 0,0 l/m 10,3 km/h N 0,6 C 1,9 C 28,2 km/h
28.12.2017 17:00 4,2 C 78 % 995,4 hPa 0,0 l/m 10,5 km/h N 0,8 C 0,9 C 30,2 km/h
28.12.2017 18:00 3,3 C 82 % 996,5 hPa 0,8 l/m 9,6 km/h N 0,5 C 0,6 C 25,3 km/h
28.12.2017 19:00 2,3 C 83 % 997,4 hPa 2,3 l/m 13,8 km/h N -0,2 C -3,4 C 36,2 km/h
28.12.2017 20:00 1,9 C 84 % 998,5 hPa 2,6 l/m 13,4 km/h N -0,5 C -3,7 C 31,4 km/h
28.12.2017 21:00 2,0 C 84 % 999,0 hPa 2,3 l/m 14,1 km/h N -0,5 C -4,0 C 32,2 km/h
28.12.2017 22:00 2,0 C 84 % 999,7 hPa 2,1 l/m 15,4 km/h N -0,5 C -4,8 C 33,8 km/h
28.12.2017 23:00 2,0 C 84 % 1000,5 hPa 1,3 l/m 16,1 km/h N -0,4 C -5,2 C 36,6 km/h
29.12.2017 00:00 2,0 C 84 % 1001,6 hPa 0,3 l/m 14,9 km/h N -0,4 C -4,4 C 33,4 km/h
29.12.2017 01:00 2,0 C 84 % 1003,0 hPa 0,3 l/m 11,8 km/h N -0,4 C -2,5 C 27,0 km/h
29.12.2017 02:00 1,9 C 84 % 1004,2 hPa 0,5 l/m 12,8 km/h N -0,6 C -3,4 C 31,0 km/h
29.12.2017 03:00 1,9 C 84 % 1005,3 hPa 0,0 l/m 12,3 km/h N -0,6 C -3,0 C 28,2 km/h
29.12.2017 04:00 1,8 C 79 % 1005,9 hPa 0,0 l/m 13,3 km/h N -1,4 C -3,7 C 29,8 km/h
29.12.2017 05:00 1,7 C 76 % 1006,6 hPa 0,0 l/m 12,4 km/h N -2,1 C -3,2 C 33,0 km/h
29.12.2017 06:00 1,7 C 77 % 1007,5 hPa 0,0 l/m 16,8 km/h N -1,9 C -5,9 C 37,8 km/h
29.12.2017 07:00 1,3 C 73 % 1008,5 hPa 0,0 l/m 16,9 km/h N -2,9 C -6,4 C 39,0 km/h
29.12.2017 08:00 1,3 C 72 % 1009,2 hPa 0,0 l/m 15,1 km/h N -3,1 C -5,4 C 37,8 km/h
29.12.2017 09:00 1,4 C 74 % 1009,7 hPa 0,0 l/m 15,8 km/h N -2,8 C -5,7 C 37,8 km/h
29.12.2017 10:00 1,9 C 70 % 1010,3 hPa 0,0 l/m 14,2 km/h N -3,1 C -4,2 C 36,6 km/h
29.12.2017 11:00 2,5 C 65 % 1010,7 hPa 0,0 l/m 12,8 km/h N -3,4 C -2,6 C 30,2 km/h
29.12.2017 12:00 2,8 C 64 % 1011,3 hPa 0,0 l/m 10,4 km/h N -3,3 C -0,6 C 27,0 km/h
29.12.2017 13:00 2,7 C 65 % 1011,3 hPa 0,0 l/m 8,8 km/h N -3,2 C 0,6 C 25,8 km/h
29.12.2017 14:00 2,8 C 64 % 1011,4 hPa 0,0 l/m 8,9 km/h N -3,4 C 0,5 C 22,5 km/h
29.12.2017 15:00 2,3 C 66 % 1011,6 hPa 0,0 l/m 7,1 km/h N -3,5 C 1,4 C 19,3 km/h
29.12.2017 16:00 1,5 C 68 % 1012,2 hPa 0,0 l/m 3,0 km/h N -3,8 C 1,5 C 11,3 km/h
29.12.2017 17:00 0,5 C 71 % 1012,7 hPa 0,0 l/m 0,3 km/h N -4,2 C 0,5 C 3,6 km/h
29.12.2017 18:00 -0,3 C 75 % 1012,8 hPa 0,0 l/m 0,4 km/h N -4,2 C -0,3 C 1,6 km/h
29.12.2017 19:00 -1,6 C 77 % 1012,7 hPa 0,0 l/m 0,0 km/h N -5,2 C -1,6 C 0,0 km/h
29.12.2017 20:00 -2,9 C 80 % 1012,4 hPa 0,0 l/m 0,0 km/h N -5,9 C -2,9 C 0,0 km/h
29.12.2017 21:00 -3,5 C 82 % 1011,8 hPa 0,0 l/m 0,0 km/h N -6,1 C -3,5 C 0,0 km/h
29.12.2017 22:00 -4,2 C 82 % 1011,2 hPa 0,0 l/m 0,0 km/h N -6,8 C -4,2 C 0,0 km/h
29.12.2017 23:00 -5,1 C 83 % 1010,5 hPa 0,0 l/m 0,0 km/h N -7,5 C -5,1 C 0,0 km/h
30.12.2017 00:00 -5,8 C 83 % 1009,8 hPa 0,0 l/m 0,0 km/h N -8,2 C -5,8 C 0,0 km/h
30.12.2017 01:00 -5,5 C 84 % 1009,6 hPa 0,0 l/m 0,0 km/h N -7,8 C -5,5 C 0,4 km/h
30.12.2017 02:00 -4,2 C 84 % 1009,9 hPa 0,0 l/m 0,1 km/h N -6,5 C -4,2 C 1,2 km/h
30.12.2017 03:00 -3,2 C 84 % 1010,4 hPa 0,0 l/m 0,0 km/h N -5,5 C -3,2 C 0,0 km/h
30.12.2017 04:00 -2,7 C 84 % 1010,5 hPa 0,0 l/m 0,0 km/h N -5,0 C -2,7 C 0,0 km/h
30.12.2017 05:00 -2,3 C 84 % 1010,5 hPa 0,0 l/m 0,0 km/h N -4,6 C -2,3 C 0,0 km/h
30.12.2017 06:00 -1,9 C 84 % 1011,0 hPa 0,0 l/m 0,0 km/h N -4,2 C -1,9 C 0,0 km/h
30.12.2017 07:00 -1,5 C 83 % 1011,3 hPa 0,0 l/m 0,0 km/h N -4,0 C -1,5 C 0,0 km/h
30.12.2017 08:00 -1,2 C 83 % 1011,9 hPa 0,0 l/m 0,2 km/h N -3,7 C -1,2 C 2,4 km/h
30.12.2017 09:00 1,2 C 84 % 1012,4 hPa 0,0 l/m 2,8 km/h N -1,3 C 1,2 C 12,9 km/h
30.12.2017 10:00 3,9 C 83 % 1012,5 hPa 0,0 l/m 1,4 km/h N 1,2 C 3,9 C 10,7 km/h
30.12.2017 11:00 3,1 C 79 % 1012,4 hPa 0,0 l/m 0,1 km/h N -0,2 C 3,1 C 3,2 km/h
30.12.2017 12:00 3,1 C 79 % 1012,1 hPa 0,0 l/m 0,1 km/h N -0,1 C 3,1 C 2,4 km/h
30.12.2017 13:00 3,7 C 77 % 1011,4 hPa 0,0 l/m 0,2 km/h N 0,0 C 3,7 C 4,8 km/h
30.12.2017 14:00 3,9 C 76 % 1010,9 hPa 0,0 l/m 0,0 km/h N 0,1 C 3,9 C 0,8 km/h
30.12.2017 15:00 3,5 C 76 % 1010,7 hPa 0,0 l/m 0,1 km/h N -0,4 C 3,5 C 2,0 km/h
30.12.2017 16:00 2,6 C 75 % 1010,2 hPa 0,0 l/m 0,1 km/h N -1,3 C 2,6 C 2,4 km/h
30.12.2017 17:00 1,8 C 78 % 1010,7 hPa 0,0 l/m 0,0 km/h N -1,6 C 1,8 C 0,4 km/h
30.12.2017 18:00 1,7 C 81 % 1011,3 hPa 2,3 l/m 0,0 km/h N -1,2 C 1,7 C 0,0 km/h
30.12.2017 19:00 1,6 C 83 % 1010,8 hPa 0,3 l/m 0,0 km/h N -1,0 C 1,6 C 0,8 km/h
30.12.2017 20:00 2,2 C 83 % 1010,5 hPa 0,0 l/m 0,3 km/h N -0,3 C 2,2 C 4,0 km/h
30.12.2017 21:00 2,5 C 84 % 1010,2 hPa 0,0 l/m 0,1 km/h N 0,0 C 2,5 C 2,0 km/h
30.12.2017 22:00 2,2 C 84 % 1010,1 hPa 0,0 l/m 0,0 km/h N -0,3 C 2,2 C 0,0 km/h
30.12.2017 23:00 2,6 C 83 % 1010,1 hPa 0,0 l/m 0,0 km/h N 0,0 C 2,6 C 0,8 km/h
31.12.2017 00:00 2,8 C 84 % 1009,6 hPa 0,0 l/m 0,0 km/h N 0,3 C 2,8 C 0,4 km/h
31.12.2017 01:00 3,6 C 84 % 1009,9 hPa 0,8 l/m 0,0 km/h N 1,2 C 3,6 C 1,6 km/h
31.12.2017 02:00 3,9 C 84 % 1010,3 hPa 2,3 l/m 0,0 km/h N 1,4 C 3,9 C 0,4 km/h
31.12.2017 03:00 3,9 C 84 % 1010,4 hPa 1,6 l/m 0,0 km/h N 1,5 C 3,9 C 0,4 km/h
31.12.2017 04:00 5,1 C 84 % 1010,6 hPa 0,0 l/m 0,4 km/h N 2,6 C 5,1 C 7,3 km/h
31.12.2017 05:00 10,1 C 84 % 1009,9 hPa 0,3 l/m 9,4 km/h N 7,5 C 8,1 C 30,2 km/h
31.12.2017 06:00 11,7 C 80 % 1010,7 hPa 0,3 l/m 9,1 km/h N 8,3 C 10,0 C 31,4 km/h
31.12.2017 07:00 12,0 C 75 % 1011,2 hPa 0,0 l/m 7,2 km/h N 7,7 C 11,1 C 25,8 km/h
31.12.2017 08:00 12,3 C 71 % 1011,9 hPa 0,0 l/m 7,7 km/h N 7,1 C 11,4 C 27,4 km/h
31.12.2017 09:00 12,7 C 67 % 1012,6 hPa 0,0 l/m 9,4 km/h N 6,8 C 10,9 C 25,8 km/h
31.12.2017 10:00 13,4 C 63 % 1012,4 hPa 0,0 l/m 12,3 km/h N 6,4 C 10,3 C 35,0 km/h
31.12.2017 11:00 13,9 C 61 % 1012,1 hPa 0,0 l/m 11,6 km/h N 6,5 C 11,2 C 38,6 km/h
31.12.2017 12:00 14,6 C 59 % 1012,0 hPa 0,0 l/m 10,9 km/h N 6,7 C 12,4 C 35,4 km/h
31.12.2017 13:00 14,9 C 55 % 1011,4 hPa 0,0 l/m 14,2 km/h N 5,8 C 11,4 C 35,4 km/h
31.12.2017 14:00 14,7 C 53 % 1010,3 hPa 0,0 l/m 16,0 km/h N 5,2 C 10,6 C 41,0 km/h
31.12.2017 15:00 14,6 C 53 % 1010,9 hPa 0,0 l/m 9,6 km/h N 5,0 C 12,8 C 35,0 km/h
31.12.2017 16:00 13,8 C 56 % 1011,6 hPa 0,0 l/m 0,9 km/h N 5,0 C 13,8 C 8,9 km/h
31.12.2017 17:00 12,0 C 60 % 1011,7 hPa 0,0 l/m 0,1 km/h N 4,4 C 12,0 C 2,0 km/h
31.12.2017 18:00 9,6 C 69 % 1011,7 hPa 0,0 l/m 0,1 km/h N 4,2 C 9,6 C 2,0 km/h
31.12.2017 19:00 7,8 C 72 % 1011,5 hPa 0,0 l/m 0,0 km/h N 3,1 C 7,8 C 0,0 km/h
31.12.2017 20:00 5,4 C 76 % 1011,3 hPa 0,0 l/m 0,0 km/h N 1,5 C 5,4 C 0,0 km/h
31.12.2017 21:00 3,7 C 81 % 1010,8 hPa 0,0 l/m 0,0 km/h N 0,7 C 3,7 C 0,4 km/h
31.12.2017 22:00 2,9 C 83 % 1010,2 hPa 0,0 l/m 0,0 km/h N 0,3 C 2,9 C 0,0 km/h
31.12.2017 23:00 1,8 C 83 % 1009,6 hPa 0,0 l/m 0,0 km/h N -0,8 C 1,8 C 0,0 km/h
Min-Datum _ 30.12.17 31.12.17 28.12.17 - 25.12.17 - 30.12.17 29.12.17 25.12.17
_ Min-Zeit 00:30 14:30 02:45 - 03:00 - 00:30 09:15 03:00
Minimum _ -5,9 C 52 % 986,9 hPa - 0,0 km/h - -8,3 C -7,1 C 0,0 km/h
Max-Datum _ 31.12.17 27.12.17 25.12.17 28.12.17 31.12.17 - 31.12.17 31.12.17 31.12.17
_ Max-Zeit 13:15 08:45 09:45 05:00 14:15 - 06:00 15:45 14:15
Maximum _ 15,1 C 85 % 1024,0 hPa 3,4 l/m 19,4 km/h
N
- 8,5 C 14,4 C 51,5 km/h
N
Durchschnitt _ 3,3 C 78 % 1007,6 hPa #26,3 l/m 3,4 km/h N -0,3 C 2,3 C 10,6 km/h